Latest METARs, TAFs and NOTAMs for LHBP


---------------------------------------------------------------------------
	(OBSERVATIONS)
LHBP 082230Z 17002KT CAVOK 03/M00 Q1022 NOSIG=
LHBP 082200Z 09003KT 050V120 CAVOK 04/M00 Q1022 NOSIG=
LHBP 082130Z 05002KT CAVOK 04/M00 Q1022 NOSIG=
LHBP 082100Z 05002KT CAVOK 03/M01 Q1022 NOSIG=
LHBP 082030Z VRB01KT CAVOK 05/M00 Q1022 NOSIG=
LHBP 082000Z VRB02KT CAVOK 05/M01 Q1022 NOSIG=
---------------------------------------------------------------------------
	(FC)
Sorry, FC For LHBP Not Found
---------------------------------------------------------------------------
	(TERMINAL AREA FORECAST)
LHBP 081715Z 0818/0918 VRB03KT CAVOK
    BECMG 0906/0908 16012KT
    BECMG 0916/0918 11005KT=
---------------------------------------------------------------------------
	(NOTAMS)


Sorry, no NOTAM available for LHBP
---------------------------------------------------------------------------